^^
Datos históricos de la estación: Murcia-Puente Tocinos
Diario Informe para Octubre 30, 2019 Unidades:  Métrico    Ingés   Ambas
Diario Semanal Mensual Anual
  Máxima: Mínima: Promedio:
Temperatura: 26.6 °C 17.2 °C 21.4 °C
Punto de rocio: 15.3 °C 12.3 °C 13.5 °C
Humedad: 75% 42.3% 62%
Velocidad viento: 17.2km/h 0km/h 7.8km/h
Racha viento: 34.3km/h - -
Viento- - SSO
Presión: 1020.4 hPa 1017.5 hPa -
Precipitación: 0.0 mm    
 
 
Tabla de datos para Octubre 30, 2019
Hora Temperatura Punto de rocio Presión Viento Velocidad viento Racha viento Humedad Intensidad lluvia(por hora) Nubes
00:04 19.8 °C 13.7 °C 1017.6 hPa SSO 12.8 km/h 20.9 km/h 68% 0.0 mm
00:09 19.8 °C 13.7 °C 1017.6 hPa SSO 13 km/h 20.4 km/h 68% 0.0 mm
00:14 19.9 °C 13.7 °C 1017.5 hPa SSO 12.4 km/h 22.5 km/h 67.4% 0.0 mm
00:19 19.9 °C 13.6 °C 1017.5 hPa SSO 12.2 km/h 19.3 km/h 67% 0.0 mm
00:24 20.1 °C 13.7 °C 1017.5 hPa SSO 12.8 km/h 24.1 km/h 66.7% 0.0 mm
00:29 20.1 °C 13.6 °C 1017.5 hPa SSO 13 km/h 24.1 km/h 66% 0.0 mm
00:34 20.1 °C 13.6 °C 1017.5 hPa SSO 13.5 km/h 20.9 km/h 66% 0.0 mm
00:39 20.1 °C 13.6 °C 1017.6 hPa SSO 13.7 km/h 20.9 km/h 66% 0.0 mm
00:44 20 °C 13.4 °C 1017.6 hPa SSO 12.3 km/h 20.9 km/h 66% 0.0 mm
00:49 19.9 °C 13.6 °C 1017.6 hPa SSO 11.9 km/h 19.3 km/h 66.9% 0.0 mm
00:54 19.8 °C 13.5 °C 1017.7 hPa SSO 10.5 km/h 16.1 km/h 67% 0.0 mm
00:59 19.7 °C 13.5 °C 1017.7 hPa SSO 10 km/h 16.1 km/h 67.6% 0.0 mm
01:04 19.6 °C 13.6 °C 1017.7 hPa SSO 9.6 km/h 16.7 km/h 68% 0.0 mm
01:09 19.6 °C 13.5 °C 1017.7 hPa SSO 9.5 km/h 14.5 km/h 68% 0.0 mm
01:14 19.5 °C 13.4 °C 1017.7 hPa SSO 8.9 km/h 14.8 km/h 68% 0.0 mm
01:19 19.5 °C 13.4 °C 1017.7 hPa Sur 8.7 km/h 14.5 km/h 68% 0.0 mm
01:24 19.5 °C 13.4 °C 1017.7 hPa SSO 8.5 km/h 13 km/h 68% 0.0 mm
01:29 19.6 °C 13.5 °C 1017.7 hPa SSO 8.4 km/h 14.8 km/h 68% 0.0 mm
01:34 19.6 °C 13.6 °C 1017.7 hPa SSO 8.6 km/h 14.5 km/h 68% 0.0 mm
01:39 19.5 °C 13.5 °C 1017.8 hPa Sur 8.7 km/h 13.7 km/h 68% 0.0 mm
01:44 19.4 °C 13.4 °C 1017.8 hPa SSO 8.7 km/h 16.1 km/h 68% 0.0 mm
01:49 19.4 °C 13.3 °C 1017.8 hPa SSO 8.7 km/h 16.7 km/h 68% 0.0 mm
01:54 19.4 °C 13.3 °C 1017.9 hPa SSO 9.3 km/h 16.1 km/h 68% 0.0 mm
01:59 19.4 °C 13.3 °C 1017.9 hPa SSO 9.5 km/h 14.8 km/h 68% 0.0 mm
02:04 19.3 °C 13.4 °C 1017.9 hPa SSO 8.6 km/h 14.5 km/h 68.9% 0.0 mm
02:09 19.3 °C 13.4 °C 1018.1 hPa SSO 8.4 km/h 15.6 km/h 69% 0.0 mm
02:14 19.2 °C 13.4 °C 1018.1 hPa SSO 8.4 km/h 16.7 km/h 69% 0.0 mm
02:19 19.2 °C 13.4 °C 1018.1 hPa SSO 8.4 km/h 16.7 km/h 69% 0.0 mm
02:24 19.2 °C 13.4 °C 1018.1 hPa SSO 9.6 km/h 16.1 km/h 69% 0.0 mm
02:29 19.2 °C 13.4 °C 1018.1 hPa SSO 10 km/h 16.7 km/h 69% 0.0 mm
02:34 19.1 °C 13.3 °C 1018.1 hPa SSO 10.2 km/h 16.7 km/h 69% 0.0 mm
02:39 19.1 °C 13.3 °C 1018.2 hPa SSO 10.3 km/h 16.7 km/h 69% 0.0 mm
02:44 19.2 °C 13.4 °C 1018.2 hPa SSO 9.7 km/h 18.3 km/h 69% 0.0 mm
02:49 19.2 °C 13.4 °C 1018.2 hPa SSO 9.5 km/h 19.3 km/h 69% 0.0 mm
02:54 19.2 °C 13.4 °C 1018.3 hPa SSO 9.5 km/h 16.7 km/h 69% 0.0 mm
02:59 19.2 °C 13.4 °C 1018.3 hPa SSO 9.5 km/h 16.1 km/h 69% 0.0 mm
03:04 19.2 °C 13.4 °C 1018.3 hPa SSO 9.5 km/h 16.7 km/h 69% 0.0 mm
03:09 19.1 °C 13.3 °C 1018.3 hPa SSO 9.5 km/h 16.1 km/h 69% 0.0 mm
03:14 19.1 °C 13.3 °C 1018.2 hPa SSO 9.9 km/h 14.8 km/h 69% 0.0 mm
03:19 19.1 °C 13.3 °C 1018.2 hPa SSO 10 km/h 14.5 km/h 69% 0.0 mm
03:24 19 °C 13.2 °C 1018.2 hPa Sur 9.6 km/h 14.5 km/h 69% 0.0 mm
03:29 18.8 °C 13.3 °C 1018.2 hPa Sur 9.5 km/h 14 km/h 69.9% 0.0 mm
03:34 18.7 °C 13.2 °C 1018.2 hPa Sur 9.5 km/h 14.8 km/h 70.4% 0.0 mm
03:39 18.6 °C 13.2 °C 1018.2 hPa Sur 9.5 km/h 14.8 km/h 71% 0.0 mm
03:44 18.4 °C 13.2 °C 1018.2 hPa Sur 8.9 km/h 14.8 km/h 71.4% 0.0 mm
03:49 18.4 °C 13.3 °C 1018.2 hPa SSO 8.7 km/h 13 km/h 72% 0.0 mm
03:54 18.4 °C 13.3 °C 1018.2 hPa SSO 8.5 km/h 13 km/h 72% 0.0 mm
03:59 18.4 °C 13.3 °C 1018.2 hPa SSO 8.4 km/h 13 km/h 72% 0.0 mm
04:04 18.4 °C 13.3 °C 1018.2 hPa SSO 7.7 km/h 13 km/h 72% 0.0 mm
04:09 18.4 °C 13.3 °C 1018.2 hPa SSO 7.6 km/h 12.9 km/h 72% 0.0 mm
04:14 18.4 °C 13.3 °C 1018.1 hPa SSO 7.1 km/h 11.3 km/h 72% 0.0 mm
04:19 18.3 °C 13.2 °C 1018.1 hPa SO 6.9 km/h 9.7 km/h 72% 0.0 mm
04:24 18.4 °C 13.2 °C 1018.2 hPa SSO 6.1 km/h 9.7 km/h 71.7% 0.0 mm
04:29 18.4 °C 13.1 °C 1018.2 hPa SO 5.8 km/h 11.9 km/h 71% 0.0 mm
04:34 18.4 °C 13 °C 1018.2 hPa SO 5.8 km/h 11.3 km/h 71% 0.0 mm
04:39 18.3 °C 13 °C 1018.2 hPa SSO 5.8 km/h 11.9 km/h 71% 0.0 mm
04:44 18.3 °C 13 °C 1018.2 hPa SO 7.1 km/h 11.3 km/h 71.1% 0.0 mm
04:49 18.3 °C 13.1 °C 1018.2 hPa SO 7.6 km/h 9.7 km/h 71.8% 0.0 mm
04:54 18.2 °C 13.1 °C 1018.2 hPa SO 6.2 km/h 8.7 km/h 72% 0.0 mm
04:59 18.2 °C 13.1 °C 1018.1 hPa SO 5.8 km/h 9.7 km/h 72% 0.0 mm
05:04 18.2 °C 13 °C 1018.1 hPa SO 4.9 km/h 8 km/h 72% 0.0 mm
05:09 18.1 °C 12.9 °C 1018.2 hPa SO 4.7 km/h 4.8 km/h 72% 0.0 mm
05:14 17.9 °C 13 °C 1018.2 hPa SO 1.2 km/h   73% 0.0 mm
05:19 17.8 °C 12.9 °C 1018.2 hPa Calm     73% 0.0 mm
05:24 17.7 °C 12.9 °C 1018.3 hPa Calm     73.3% 0.0 mm
05:29 17.6 °C 12.9 °C 1018.3 hPa Calm     74.1% 0.0 mm
05:34 17.4 °C 13 °C 1018.3 hPa Calm     75% 0.0 mm
05:39 17.3 °C 12.9 °C 1018.3 hPa Calm     75% 0.0 mm
05:44 17.3 °C 12.8 °C 1018.3 hPa Calm     75% 0.0 mm
05:49 17.3 °C 12.8 °C 1018.3 hPa Calm     75% 0.0 mm
05:54 17.3 °C 12.8 °C 1018.3 hPa Calm     75% 0.0 mm
05:59 17.3 °C 12.8 °C 1018.3 hPa Calm     75% 0.0 mm
06:04 17.3 °C 12.8 °C 1018.3 hPa Calm     75% 0.0 mm
06:09 17.3 °C 12.8 °C 1018.3 hPa Calm     75% 0.0 mm
06:14 17.2 °C 12.7 °C 1018.2 hPa Calm     75% 0.0 mm
06:19 17.2 °C 12.7 °C 1018.2 hPa Calm     75% 0.0 mm
06:24 17.2 °C 12.7 °C 1018.3 hPa Calm   9.3 km/h 74.9% 0.0 mm
06:29 17.3 °C 12.6 °C 1018.3 hPa Calm   9.7 km/h 74% 0.0 mm
06:34 17.4 °C 12.6 °C 1018.3 hPa SO 3.7 km/h 10 km/h 73.5% 0.0 mm
06:39 17.6 °C 12.7 °C 1018.4 hPa SO 5 km/h 9.7 km/h 73% 0.0 mm
06:44 17.7 °C 12.6 °C 1018.4 hPa SO 6.1 km/h 8 km/h 72.2% 0.0 mm
06:49 17.8 °C 12.6 °C 1018.4 hPa SSO 6.5 km/h 11.1 km/h 71.8% 0.0 mm
06:54 17.9 °C 12.5 °C 1018.4 hPa SSO 6.5 km/h 11.9 km/h 71% 0.0 mm
06:59 17.9 °C 12.6 °C 1018.4 hPa SSO 6.5 km/h 11.3 km/h 71% 0.0 mm
07:04 17.9 °C 12.6 °C 1018.4 hPa SSO 6.5 km/h 11.1 km/h 71% 0.0 mm
07:09 17.9 °C 12.5 °C 1018.5 hPa Sur 6.5 km/h 11.3 km/h 71% 0.0 mm
07:14 17.8 °C 12.4 °C 1018.5 hPa Sur 6.8 km/h 11.1 km/h 71% 0.0 mm
07:19 17.7 °C 12.5 °C 1018.5 hPa Sur 6.9 km/h 11.3 km/h 71.7% 0.0 mm
07:24 17.6 °C 12.5 °C 1018.5 hPa SSO 6.9 km/h 13 km/h 72% 0.0 mm
07:29 17.6 °C 12.5 °C 1018.4 hPa SSO 6.9 km/h 12.9 km/h 72% 0.0 mm
07:34 17.7 °C 12.6 °C 1018.4 hPa SSO 7.4 km/h 13 km/h 72% 0.0 mm
07:39 17.7 °C 12.6 °C 1018.7 hPa SO 7.6 km/h 11.3 km/h 71.8% 0.0 mm
07:44 17.7 °C 12.4 °C 1018.7 hPa SO 6.7 km/h 11.3 km/h 71.1% 0.0 mm
07:49 17.7 °C 12.6 °C 1018.7 hPa SO 6.5 km/h 9.7 km/h 71.8% 0.0 mm
07:54 17.7 °C 12.6 °C 1018.9 hPa SO 5.4 km/h 8.4 km/h 72% 0.0 mm
07:59 17.7 °C 12.6 °C 1018.9 hPa SO 5 km/h 9.3 km/h 72% 0.0 mm
08:04 17.7 °C 12.5 °C 1018.9 hPa SO 5.6 km/h 11.1 km/h 71.6% 0.0 mm
08:09 17.8 °C 12.4 °C 1019.2 hPa SO 5.8 km/h 11.9 km/h 71% 0.0 mm
08:14 17.8 °C 12.4 °C 1019.2 hPa SO 6.6 km/h 13.7 km/h 71% 0.0 mm
08:19 17.8 °C 12.4 °C 1019.2 hPa SO 6.9 km/h 14.5 km/h 71% 0.0 mm
08:24 17.9 °C 12.5 °C 1019.5 hPa SO 6.9 km/h 11.3 km/h 71% 0.0 mm
08:29 17.9 °C 12.4 °C 1019.5 hPa SSO 6.9 km/h 11.3 km/h 70.6% 0.0 mm
08:34 17.9 °C 12.3 °C 1019.5 hPa SSO 6.1 km/h 10 km/h 70% 0.0 mm
08:39 17.9 °C 12.4 °C 1019.6 hPa SSO 5.8 km/h 11.1 km/h 70% 0.0 mm
08:44 18 °C 12.4 °C 1019.6 hPa SSO 6.6 km/h 11.3 km/h 70% 0.0 mm
08:49 18 °C 12.5 °C 1019.6 hPa SO 6.9 km/h 11.3 km/h 70% 0.0 mm
08:54 18.1 °C 12.6 °C 1019.7 hPa SSO 6.6 km/h 10 km/h 70% 0.0 mm
08:59 18.3 °C 12.5 °C 1019.7 hPa SSO 6.5 km/h 11.9 km/h 69.4% 0.0 mm
09:04 18.4 °C 12.5 °C 1019.7 hPa SSO 6.5 km/h 13 km/h 68.7% 0.0 mm
09:09 18.5 °C 12.6 °C 1019.8 hPa SSO 6.5 km/h 12.9 km/h 68.7% 0.0 mm
09:14 18.7 °C 12.7 °C 1019.8 hPa SSO 6.8 km/h 9.7 km/h 68.1% 0.0 mm
09:19 18.9 °C 12.7 °C 1019.8 hPa SSO 6.9 km/h 11.1 km/h 67.4% 0.0 mm
09:24 19.1 °C 12.8 °C 1019.9 hPa SSO 6.9 km/h 11.3 km/h 67% 0.0 mm
09:29 19.3 °C 12.8 °C 1019.9 hPa SSO 6.9 km/h 13 km/h 66.3% 0.0 mm
09:34 19.4 °C 12.9 °C 1019.9 hPa SSO 6.9 km/h 12.9 km/h 66% 0.0 mm
09:39 19.6 °C 12.9 °C 1020.0 hPa SSO 6.9 km/h 11.3 km/h 65.6% 0.0 mm
09:44 19.6 °C 13 °C 1020.0 hPa Sur 6.6 km/h 10 km/h 65.7% 0.0 mm
09:49 19.5 °C 13 °C 1020.0 hPa SSO 6.5 km/h 9.7 km/h 66% 0.0 mm
09:54 19.7 °C 13.1 °C 1020.2 hPa SSO 5.4 km/h 10 km/h 66% 0.0 mm
09:59 19.9 °C 13.2 °C 1020.2 hPa SSO 5 km/h 10 km/h 65.3% 0.0 mm
10:04 20.1 °C 13.3 °C 1020.2 hPa SSO 5.6 km/h 11.1 km/h 65% 0.0 mm
10:09 20.3 °C 13.3 °C 1020.2 hPa SO 5.8 km/h 11.3 km/h 64.2% 0.0 mm
10:14 20.4 °C 13.4 °C 1020.2 hPa SO 6.3 km/h 11.3 km/h 64% 0.0 mm
10:19 20.7 °C 13.4 °C 1020.2 hPa SSO 6.5 km/h 14.8 km/h 63.1% 0.0 mm
10:24 20.8 °C 13.4 °C 1020.2 hPa SSO 6.8 km/h 14.5 km/h 63% 0.0 mm
10:29 21 °C 13.5 °C 1020.2 hPa SSO 6.9 km/h 11.1 km/h 62.3% 0.0 mm
10:34 21.2 °C 13.5 °C 1020.2 hPa Sur 6.6 km/h 13 km/h 61.7% 0.0 mm
10:39 21.3 °C 13.6 °C 1020.2 hPa Sur 6.5 km/h 12.9 km/h 61.4% 0.0 mm
10:44 21.5 °C 13.6 °C 1020.2 hPa SSO 7.3 km/h 11.9 km/h 60.9% 0.0 mm
10:49 21.6 °C 13.6 °C 1020.2 hPa Sur 7.6 km/h 13.7 km/h 60.2% 0.0 mm
10:54 21.8 °C 13.7 °C 1020.2 hPa Sur 8.4 km/h 14.5 km/h 60% 0.0 mm
10:59 22 °C 13.7 °C 1020.2 hPa SSO 8.7 km/h 17.2 km/h 59.1% 0.0 mm
11:04 22.3 °C 13.4 °C 1020.2 hPa OSO 7.8 km/h 17.7 km/h 57.2% 0.0 mm
11:09 22.5 °C 13.3 °C 1020.2 hPa SO 7.6 km/h 20.4 km/h 55.9% 0.0 mm
11:14 22.6 °C 13.1 °C 1020.2 hPa OSO 10.9 km/h 22.5 km/h 55% 0.0 mm
11:19 22.8 °C 13.2 °C 1020.2 hPa SO 11.9 km/h 22.5 km/h 55% 0.0 mm
11:24 22.9 °C 13.2 °C 1020.2 hPa OSO 12.1 km/h 22.5 km/h 54.4% 0.0 mm
11:29 22.9 °C 13.3 °C 1020.1 hPa OSO 12.2 km/h 20.9 km/h 54.8% 0.0 mm
11:34 23.1 °C 13.4 °C 1020.1 hPa OSO 10.8 km/h 20.4 km/h 54.6% 0.0 mm
11:39 23.2 °C 13.4 °C 1020.1 hPa OSO 10.3 km/h 20.9 km/h 54% 0.0 mm
11:44 23.3 °C 13.4 °C 1019.9 hPa OSO 11.5 km/h 20.9 km/h 54% 0.0 mm
11:49 23.5 °C 13.4 °C 1019.9 hPa OSO 11.9 km/h 20.9 km/h 53.1% 0.0 mm
11:54 23.7 °C 13.1 °C 1019.9 hPa Oeste 10.7 km/h 27.8 km/h 51.6% 0.0 mm
11:59 23.7 °C 13 °C 1019.8 hPa Oeste 10.3 km/h 27.8 km/h 51% 0.0 mm
12:04 23.8 °C 13.1 °C 1019.8 hPa Oeste 14.5 km/h 27.4 km/h 51% 0.0 mm
12:09 23.9 °C 13.2 °C 1019.8 hPa Oeste 15.6 km/h 25.9 km/h 51% 0.0 mm
12:14 24.1 °C 13 °C 1019.7 hPa OSO 13.6 km/h 30.9 km/h 50% 0.0 mm
12:19 24.1 °C 12.8 °C 1019.7 hPa OSO 13 km/h 32.2 km/h 49.3% 0.0 mm
12:24 24.2 °C 12.9 °C 1019.7 hPa OSO 15 km/h 34.3 km/h 49.5% 0.0 mm
12:29 24.2 °C 12.9 °C 1019.5 hPa OSO 15.6 km/h 33.8 km/h 49.5% 0.0 mm
12:34 24.2 °C 13.1 °C 1019.5 hPa OSO 16.8 km/h 32.2 km/h 50% 0.0 mm
12:39 24.3 °C 13 °C 1019.5 hPa OSO 17.2 km/h 27.8 km/h 49.5% 0.0 mm
12:44 24.3 °C 13 °C 1019.3 hPa OSO 16.3 km/h 27.4 km/h 49.3% 0.0 mm
12:49 24.4 °C 13 °C 1019.3 hPa OSO 16.1 km/h 25.9 km/h 49.1% 0.0 mm
12:54 24.4 °C 13 °C 1019.3 hPa OSO 14.5 km/h 26.2 km/h 49% 0.0 mm
12:59 24.4 °C 13.1 °C 1019.1 hPa OSO 14 km/h 26.2 km/h 49.2% 0.0 mm
13:04 24.6 °C 13.2 °C 1019.1 hPa OSO 14 km/h 25.7 km/h 49.1% 0.0 mm
13:09 24.6 °C 13.2 °C 1019.1 hPa OSO 14 km/h 24.1 km/h 49% 0.0 mm
13:14 24.7 °C 13 °C 1018.9 hPa Oeste 13.8 km/h 29.6 km/h 48.1% 0.0 mm
13:19 24.8 °C 13 °C 1018.9 hPa OSO 13.7 km/h 29 km/h 47.7% 0.0 mm
13:24 24.9 °C 12.9 °C 1018.9 hPa OSO 13.7 km/h 27.4 km/h 47.3% 0.0 mm
13:29 25 °C 12.9 °C 1018.9 hPa OSO 13.7 km/h 25.9 km/h 47% 0.0 mm
13:34 24.9 °C 13 °C 1018.9 hPa SO 13.9 km/h 25.7 km/h 47.5% 0.0 mm
13:39 25 °C 13 °C 1018.9 hPa OSO 14 km/h 20.9 km/h 47.1% 0.0 mm
13:44 25.2 °C 12.9 °C 1018.6 hPa SO 11.8 km/h 27.4 km/h 46.4% 0.0 mm
13:49 25.3 °C 12.6 °C 1018.6 hPa OSO 11.1 km/h 27.8 km/h 45.3% 0.0 mm
13:54 25.3 °C 12.7 °C 1018.6 hPa SO 13.9 km/h 25.7 km/h 45.7% 0.0 mm
13:59 25.5 °C 12.7 °C 1018.5 hPa OSO 14.8 km/h 22.2 km/h 45% 0.0 mm
14:04 25.7 °C 12.7 °C 1018.5 hPa Oeste 12.5 km/h 22.5 km/h 44.8% 0.0 mm
14:09 25.7 °C 12.6 °C 1018.5 hPa OSO 11.9 km/h 17.7 km/h 44% 0.0 mm
14:14 25.8 °C 12.6 °C 1018.3 hPa Oeste 8.6 km/h 17.7 km/h 44% 0.0 mm
14:19 25.8 °C 12.9 °C 1018.3 hPa ONO 7.6 km/h 17.7 km/h 45% 0.0 mm
14:24 25.8 °C 13 °C 1018.3 hPa Oeste 8.2 km/h 16.1 km/h 45% 0.0 mm
14:29 25.9 °C 12.7 °C 1018.3 hPa Oeste 8.4 km/h 14.8 km/h 44.1% 0.0 mm
14:34 25.9 °C 12.7 °C 1018.3 hPa OSO 7.3 km/h 19 km/h 43.9% 0.0 mm
14:39 25.8 °C 13 °C 1018.3 hPa OSO 6.9 km/h 19.3 km/h 44.9% 0.0 mm
14:44 25.9 °C 13 °C 1018.1 hPa OSO 9.2 km/h 19.3 km/h 45% 0.0 mm
14:49 25.9 °C 13.1 °C 1018.1 hPa SO 10 km/h 19.3 km/h 45% 0.0 mm
14:54 25.9 °C 13.1 °C 1018.1 hPa SO 9.6 km/h 19.3 km/h 45% 0.0 mm
14:59 26 °C 13 °C 1018.0 hPa ONO 9.5 km/h 15.6 km/h 44.8% 0.0 mm
15:04 26.1 °C 12.9 °C 1018.0 hPa Oeste 8.6 km/h 18 km/h 44% 0.0 mm
15:09 26.2 °C 12.9 °C 1018.1 hPa Oeste 8.4 km/h 19.3 km/h 43.8% 0.0 mm
15:14 26.3 °C 12.8 °C 1018.1 hPa OSO 8.6 km/h 19.3 km/h 43.1% 0.0 mm
15:19 26.3 °C 12.5 °C 1018.1 hPa Oeste 8.7 km/h 22.2 km/h 42.3% 0.0 mm
15:24 26.3 °C 12.6 °C 1018.1 hPa Oeste 10.5 km/h 24.1 km/h 42.7% 0.0 mm
15:29 26.2 °C 12.5 °C 1018.0 hPa OSO 11.1 km/h 24.1 km/h 42.7% 0.0 mm
15:34 26.3 °C 12.8 °C 1018.0 hPa Oeste 11.1 km/h 17.2 km/h 42.9% 0.0 mm
15:39 26.5 °C 12.9 °C 1018.0 hPa OSO 11.1 km/h 18.5 km/h 43% 0.0 mm
15:44 26.6 °C 12.9 °C 1017.9 hPa OSO 9.2 km/h 20.9 km/h 43% 0.0 mm
15:49 26.5 °C 12.9 °C 1017.9 hPa Oeste 8.7 km/h 20.9 km/h 43% 0.0 mm
15:54 26.5 °C 13.1 °C 1018.0 hPa Oeste 8.7 km/h 17.2 km/h 43.7% 0.0 mm
15:59 26.4 °C 13.2 °C 1018.0 hPa Oeste 8.7 km/h 17.7 km/h 43.9% 0.0 mm
16:04 26.3 °C 13.3 °C 1018.0 hPa ONO 8.7 km/h 16.1 km/h 44.4% 0.0 mm
16:09 26.3 °C 13.2 °C 1018.0 hPa Oeste 8.7 km/h 16.7 km/h 44.5% 0.0 mm
16:14 26.2 °C 13.3 °C 1018.0 hPa ONO 9.3 km/h 16.1 km/h 44.9% 0.0 mm
16:19 26.2 °C 13.3 °C 1018.0 hPa ONO 9.5 km/h 14.8 km/h 45% 0.0 mm
16:24 26.2 °C 13.3 °C 1018.0 hPa Oeste 8 km/h 14 km/h 45% 0.0 mm
16:29 26.3 °C 13.4 °C 1017.9 hPa ONO 7.6 km/h 14.8 km/h 45% 0.0 mm
16:34 26.4 °C 13.3 °C 1017.9 hPa Oeste 8.2 km/h 13 km/h 44.5% 0.0 mm
16:39 26.5 °C 13.3 °C 1018.0 hPa ONO 8.4 km/h 12.9 km/h 44.2% 0.0 mm
16:44 26.5 °C 13.4 °C 1018.0 hPa ONO 6.9 km/h 11.9 km/h 44.4% 0.0 mm
16:49 26.4 °C 13.2 °C 1018.0 hPa ONO 6.5 km/h 11.3 km/h 44.2% 0.0 mm
16:54 26.4 °C 13.2 °C 1018.0 hPa ONO 6.5 km/h 13 km/h 44.1% 0.0 mm
16:59 26.4 °C 13.2 °C 1018.0 hPa ONO 6.5 km/h 13 km/h 44% 0.0 mm
17:04 26.4 °C 13.1 °C 1018.0 hPa ONO 7.3 km/h 13 km/h 44% 0.0 mm
17:09 26.4 °C 13.1 °C 1018.0 hPa NO 7.6 km/h 13 km/h 44% 0.0 mm
17:14 26.3 °C 13.4 °C 1018.0 hPa NO 7.6 km/h 11.3 km/h 44.8% 0.0 mm
17:19 26.3 °C 13.4 °C 1018.0 hPa NO 7.6 km/h 9.7 km/h 45% 0.0 mm
17:24 26.3 °C 13.1 °C 1018.1 hPa ONO 6.2 km/h 10 km/h 44.2% 0.0 mm
17:29 26.3 °C 13.2 °C 1018.1 hPa ONO 5.8 km/h 9.7 km/h 44.3% 0.0 mm
17:34 26.3 °C 13.3 °C 1018.1 hPa ONO 5.2 km/h 8 km/h 44.5% 0.0 mm
17:39 26.4 °C 13.2 °C 1018.1 hPa ONO 5 km/h 7.4 km/h 44.3% 0.0 mm
17:44 26.3 °C 13.2 °C 1018.0 hPa NO 4.2 km/h 8.4 km/h 44.3% 0.0 mm
17:49 26.2 °C 13.3 °C 1018.0 hPa North 3.9 km/h 8 km/h 45% 0.0 mm
17:54 25.9 °C 13.4 °C 1018.2 hPa NNE 4.5 km/h 8.4 km/h 46% 0.0 mm
17:59 25.7 °C 13.2 °C 1018.2 hPa NE 4.7 km/h 8.4 km/h 46% 0.0 mm
18:04 25.6 °C 13.2 °C 1018.2 hPa NE 5.5 km/h 8.4 km/h 46.4% 0.0 mm
18:09 25.4 °C 13.1 °C 1018.3 hPa NNE 5.8 km/h 8 km/h 46.5% 0.0 mm
18:14 25.3 °C 13.2 °C 1018.3 hPa NNE 4.9 km/h 8.4 km/h 47% 0.0 mm
18:19 25.2 °C 13.1 °C 1018.3 hPa NNE 4.7 km/h 8.4 km/h 47% 0.0 mm
18:24 25.1 °C 13 °C 1018.5 hPa NNE 4.9 km/h 8 km/h 47% 0.0 mm
18:29 25 °C 12.9 °C 1018.5 hPa NE 5 km/h 8 km/h 47% 0.0 mm
18:34 24.9 °C 12.8 °C 1018.5 hPa NE 4.7 km/h 8 km/h 47% 0.0 mm
18:39 24.9 °C 13 °C 1018.6 hPa NE 4.7 km/h 8 km/h 47.8% 0.0 mm
18:44 24.7 °C 13.6 °C 1018.6 hPa Este 4.9 km/h 8 km/h 50% 0.0 mm
18:49 24.4 °C 14.1 °C 1018.6 hPa Este 5 km/h 9.3 km/h 52.8% 0.0 mm
18:54 23.9 °C 14.2 °C 1018.7 hPa ESE 5 km/h 9.7 km/h 54.8% 0.0 mm
18:59 23.5 °C 14.3 °C 1018.7 hPa ESE 5 km/h 9.7 km/h 56.3% 0.0 mm
19:04 23.3 °C 14.3 °C 1018.7 hPa ESE 5 km/h 8 km/h 57% 0.0 mm
19:09 23.1 °C 14.4 °C 1018.8 hPa SE 5 km/h 8.4 km/h 57.9% 0.0 mm
19:14 22.9 °C 14.2 °C 1018.8 hPa SSE 5 km/h 8.4 km/h 58.1% 0.0 mm
19:19 22.7 °C 14.2 °C 1018.8 hPa Sur 5 km/h 11.1 km/h 58.7% 0.0 mm
19:24 22.7 °C 14.2 °C 1019.0 hPa SSO 6.1 km/h 11.3 km/h 59% 0.0 mm
19:29 22.7 °C 14.3 °C 1019.0 hPa SSO 6.5 km/h 11.3 km/h 59% 0.0 mm
19:34 22.8 °C 14.5 °C 1019.0 hPa SO 6.8 km/h 14.8 km/h 59.7% 0.0 mm
19:39 22.8 °C 14.7 °C 1019.2 hPa SSO 6.9 km/h 16.7 km/h 60.4% 0.0 mm
19:44 22.8 °C 14.9 °C 1019.2 hPa SSO 8.3 km/h 16.1 km/h 61% 0.0 mm
19:49 22.7 °C 15 °C 1019.2 hPa SSO 8.7 km/h 18.5 km/h 61.9% 0.0 mm
19:54 22.6 °C 15.1 °C 1019.3 hPa SSO 7.9 km/h 19.3 km/h 62.7% 0.0 mm
19:59 22.4 °C 15.2 °C 1019.3 hPa SSO 7.6 km/h 16.1 km/h 63.8% 0.0 mm
20:04 22.3 °C 15.2 °C 1019.3 hPa SSO 9.1 km/h 16.7 km/h 64.3% 0.0 mm
20:09 22.2 °C 15.3 °C 1019.4 hPa SSO 9.5 km/h 16.7 km/h 65% 0.0 mm
20:14 22 °C 15.2 °C 1019.4 hPa SSO 9.9 km/h 18.5 km/h 65.7% 0.0 mm
20:19 21.8 °C 15.2 °C 1019.4 hPa SO 10 km/h 19.3 km/h 66% 0.0 mm
20:24 21.8 °C 15.2 °C 1019.5 hPa SO 9.6 km/h 20.4 km/h 66.1% 0.0 mm
20:29 21.7 °C 15.3 °C 1019.5 hPa SSO 9.5 km/h 20.9 km/h 67% 0.0 mm
20:34 21.7 °C 15.3 °C 1019.5 hPa SSO 9.5 km/h 16.1 km/h 67% 0.0 mm
20:39 21.6 °C 15.2 °C 1019.6 hPa SSO 9.5 km/h 19 km/h 67% 0.0 mm
20:44 21.6 °C 15.2 °C 1019.6 hPa SSO 8.9 km/h 19.3 km/h 67% 0.0 mm
20:49 21.5 °C 15.2 °C 1019.6 hPa SO 8.7 km/h 17.2 km/h 67% 0.0 mm
20:54 21.5 °C 15.1 °C 1019.8 hPa SO 8.7 km/h 17.7 km/h 67% 0.0 mm
20:59 21.4 °C 15 °C 1019.8 hPa SO 8.7 km/h 17.7 km/h 67% 0.0 mm
21:04 21.3 °C 15.2 °C 1019.8 hPa SO 7.8 km/h 11.3 km/h 68% 0.0 mm
21:09 21.3 °C 15.1 °C 1019.8 hPa SSO 7.6 km/h 9.7 km/h 68% 0.0 mm
21:14 21.2 °C 15.1 °C 1019.8 hPa SO 6.2 km/h 9.7 km/h 68% 0.0 mm
21:19 21.2 °C 15.1 °C 1019.8 hPa SSO 5.8 km/h 9.5 km/h 68% 0.0 mm
21:24 21.2 °C 15 °C 1019.9 hPa SSO 5.2 km/h 11.1 km/h 68% 0.0 mm
21:29 21.1 °C 14.9 °C 1019.9 hPa SSO 5 km/h 11.3 km/h 68% 0.0 mm
21:34 21.1 °C 15 °C 1019.9 hPa Sur 5.6 km/h 9.7 km/h 68.5% 0.0 mm
21:39 21.1 °C 15.1 °C 1020.1 hPa Sur 5.8 km/h 9.5 km/h 69% 0.0 mm
21:44 21 °C 15.1 °C 1020.1 hPa Sur 6.3 km/h 9.7 km/h 69% 0.0 mm
21:49 20.9 °C 15 °C 1020.1 hPa Sur 6.5 km/h 10 km/h 69% 0.0 mm
21:54 20.8 °C 15 °C 1020.3 hPa SSO 6.5 km/h 11.1 km/h 69.6% 0.0 mm
21:59 20.7 °C 15.1 °C 1020.3 hPa Sur 6.5 km/h 11.3 km/h 70% 0.0 mm
22:04 20.7 °C 15 °C 1020.3 hPa SSO 6.8 km/h 9.7 km/h 70% 0.0 mm
22:09 20.6 °C 14.9 °C 1020.4 hPa SSO 6.9 km/h 10 km/h 70% 0.0 mm
22:14 20.6 °C 15 °C 1020.4 hPa Sur 6.1 km/h 9.7 km/h 70.4% 0.0 mm
22:19 20.6 °C 15.2 °C 1020.4 hPa Sur 5.8 km/h 8 km/h 71% 0.0 mm
22:24 20.6 °C 15.1 °C 1020.4 hPa Sur 5.2 km/h 9.3 km/h 71% 0.0 mm
22:29 20.5 °C 15 °C 1020.3 hPa Sur 5 km/h 9.7 km/h 71% 0.0 mm
22:34 20.4 °C 14.9 °C 1020.3 hPa Sur 5 km/h 9.3 km/h 71% 0.0 mm
22:39 20.4 °C 14.9 °C 1020.4 hPa SSE 5 km/h 9.7 km/h 71% 0.0 mm
22:44 20.3 °C 14.9 °C 1020.4 hPa SSE 5.6 km/h 10 km/h 71% 0.0 mm
22:49 20.3 °C 14.9 °C 1020.4 hPa SSE 5.8 km/h 9.7 km/h 71.1% 0.0 mm
22:54 20.3 °C 15.1 °C 1020.4 hPa Sur 5.8 km/h 10 km/h 72% 0.0 mm
22:59 20.2 °C 15 °C 1020.3 hPa Sur 5.8 km/h 10 km/h 72% 0.0 mm
23:04 20.1 °C 14.9 °C 1020.3 hPa Sur 6.3 km/h 9.7 km/h 72% 0.0 mm
23:09 20.1 °C 14.9 °C 1020.3 hPa SSE 6.5 km/h 9.7 km/h 72.2% 0.0 mm
23:14 20 °C 15 °C 1020.3 hPa Sur 6.5 km/h 9.7 km/h 73% 0.0 mm
23:19 20 °C 15 °C 1020.3 hPa SSE 6.5 km/h 9.5 km/h 73% 0.0 mm
23:24 19.9 °C 14.9 °C 1020.3 hPa SSE 6.5 km/h 11.1 km/h 73% 0.0 mm
23:29 19.9 °C 15 °C 1020.3 hPa Sur 6.5 km/h 11.3 km/h 73.5% 0.0 mm
23:34 19.9 °C 15.1 °C 1020.3 hPa Sur 6.8 km/h 11.3 km/h 74% 0.0 mm
23:39 19.9 °C 15.1 °C 1020.3 hPa Sur 6.9 km/h 11.9 km/h 74% 0.0 mm
23:44 19.9 °C 15.1 °C 1020.3 hPa SSO 7.4 km/h 11.3 km/h 74% 0.0 mm
23:49 19.9 °C 15.1 °C 1020.3 hPa SSO 7.6 km/h 9.7 km/h 74% 0.0 mm
23:54 19.9 °C 15.1 °C 1020.4 hPa SSO 6.7 km/h 10 km/h 74% 0.0 mm
23:59 19.9 °C 15.1 °C 1020.4 hPa SSO 6.5 km/h 9.7 km/h 74% 0.0 mm
Murcia-Puente Tocinos, España
Compliments of Weather Underground - 3 mb

La estación de MeteoMurcia.com, publica sus datos en los siguientes proyectos:

Weather Underground PWS IMURCIAP2 Meteoclimatic www.awekas.at

W3Counter
Web Analytics